Holmsk, Russia
Current Conditions -  °F | °C
As of 8:00 PM on Monday 24 Nov 2014 (Local Time) from UHSS Reporting Station
Clear Clear  
Wind Chill: 21°   Ceiling: Unl
Heat Index: 21°   Visibility: 6mi
Dew Point: 16°   Wind: 0mph
Humidity: 80%   Direction: NA
Pressure: 29.97"   Gusts: NA
Location:  47.05°N, 142.06°E
Report Text: UHSS 240900Z 00000MPS 9999 NSC M06/M09 Q1015 NOSIG RMKQFE760/1014 01CLRD65
Loading
Personal Weather Stations






























Interactive Weather Map New forecast layout! Learn more

10-Day Weather Forecast

Advertisements
Track Severe Weather on mobile